Time;durP1;ratioP1;P1;durP2;ratioP2;P2;SDS_P1;SDS_P2;PMS_P1;PMS_P2;Temp;Humidity;BMP_temperature;BMP_pressure;BME280_temperature;BME280_humidity;BME280_pressure;Samples;Min_cycle;Max_cycle;Signal;HPM_P1;HPM_P2
2023/05/26 00:02:08;;;;;;;31.23;13.20;;;8.30;80.60;;;;;;5037019;28;20222;-86
2023/05/26 00:04:33;;;;;;;31.73;13.20;;;8.30;80.70;;;;;;5037170;28;20208;-86
2023/05/26 00:06:59;;;;;;;33.83;13.33;;;8.30;80.70;;;;;;5055010;28;20218;-86
2023/05/26 00:09:25;;;;;;;36.97;14.90;;;8.30;80.70;;;;;;5037413;28;20216;-85
2023/05/26 00:11:50;;;;;;;35.17;14.53;;;8.20;80.60;;;;;;5036924;28;20204;-85
2023/05/26 00:14:16;;;;;;;35.07;13.90;;;8.20;80.70;;;;;;5054860;28;20179;-85
2023/05/26 00:16:43;;;;;;;33.53;12.70;;;8.10;80.60;;;;;;5036958;28;20184;-86
2023/05/26 00:19:09;;;;;;;31.60;13.60;;;8.10;80.60;;;;;;5036866;28;20183;-85
2023/05/26 00:21:35;;;;;;;33.30;12.77;;;8.00;80.70;;;;;;5036530;28;20195;-85
2023/05/26 00:24:01;;;;;;;28.97;13.00;;;8.00;80.60;;;;;;5036410;28;20219;-85
2023/05/26 00:26:27;;;;;;;31.50;14.73;;;8.00;80.70;;;;;;5036742;28;20211;-85
2023/05/26 00:28:52;;;;;;;45.17;28.13;;;7.90;80.70;;;;;;5036764;28;20677;-85
2023/05/26 00:31:18;;;;;;;40.30;25.70;;;7.90;80.70;;;;;;5036555;28;20200;-86
2023/05/26 00:33:43;;;;;;;42.80;27.40;;;7.90;80.70;;;;;;5036675;28;20184;-85
2023/05/26 00:36:10;;;;;;;40.87;26.50;;;7.90;80.80;;;;;;5054596;28;20210;-86
2023/05/26 00:38:35;;;;;;;45.30;29.50;;;7.80;80.60;;;;;;5036487;28;20175;-86
2023/05/26 00:41:01;;;;;;;31.80;26.83;;;7.80;80.80;;;;;;5036412;28;20560;-85
2023/05/26 00:43:26;;;;;;;47.63;27.57;;;7.70;80.80;;;;;;5036415;28;20180;-86
2023/05/26 00:45:52;;;;;;;44.10;27.20;;;7.60;80.80;;;;;;5054219;28;20180;-85
2023/05/26 00:48:17;;;;;;;40.93;26.27;;;7.50;81.40;;;;;;5036752;28;20263;-85
2023/05/26 00:50:43;;;;;;;41.57;26.53;;;7.40;81.60;;;;;;5036333;28;20176;-85
2023/05/26 00:53:10;;;;;;;33.93;13.30;;;7.50;81.50;;;;;;5036134;28;20192;-85
2023/05/26 00:55:35;;;;;;;31.83;12.53;;;7.40;81.50;;;;;;5054116;28;20207;-86
2023/05/26 00:58:01;;;;;;;41.03;13.63;;;7.50;81.50;;;;;;5036168;28;20212;-85
2023/05/26 01:00:27;;;;;;;27.40;13.57;;;7.50;81.40;;;;;;5036153;28;20202;-85
2023/05/26 01:02:56;;;;;;;31.00;12.70;;;7.50;81.30;;;;;;5035884;28;20219;-85
2023/05/26 01:05:23;;;;;;;26.87;12.17;;;7.40;80.90;;;;;;5035999;28;20203;-86
2023/05/26 01:07:48;;;;;;;33.93;13.10;;;7.40;80.80;;;;;;5053842;28;20174;-86
2023/05/26 01:10:14;;;;;;;36.23;13.63;;;7.40;80.70;;;;;;5035956;28;20176;-85
2023/05/26 01:12:44;;;;;;;28.67;13.70;;;7.30;80.70;;;;;;5035727;28;20283;-85
2023/05/26 01:15:15;;;;;;;32.30;13.17;;;7.30;80.70;;;;;;5053691;28;20183;-85
2023/05/26 01:17:55;;;;;;;34.50;12.97;;;7.20;80.50;;;;;;5035872;28;20262;-85
2023/05/26 01:20:27;;;;;;;27.40;13.03;;;7.20;80.80;;;;;;5035816;28;20634;-85
2023/05/26 01:23:18;;;;;;;39.53;13.63;;;7.10;81.00;;;;;;5053463;28;20605;-85
2023/05/26 01:26:19;;;;;;;34.80;12.60;;;7.00;81.40;;;;;;5053455;28;20192;-85
2023/05/26 01:28:46;;;;;;;40.07;13.10;;;7.00;81.40;;;;;;5053448;28;20152;-85
2023/05/26 01:31:12;;;;;;;32.37;12.63;;;7.00;81.10;;;;;;5053241;28;20191;-85
2023/05/26 01:33:38;;;;;;;29.77;13.03;;;7.00;81.20;;;;;;5052701;28;20192;-85
2023/05/26 01:36:04;;;;;;;37.27;12.77;;;7.00;81.10;;;;;;5053026;28;20199;-85
2023/05/26 01:38:29;;;;;;;33.93;12.93;;;7.00;81.10;;;;;;5053404;28;20255;-85
2023/05/26 01:41:21;;;;;;;38.60;12.33;;;6.80;81.20;;;;;;5035368;28;20259;-85
2023/05/26 01:44:02;;;;;;;34.20;13.60;;;6.80;81.50;;;;;;5046180;28;20207;-85
2023/05/26 01:46:49;;;;;;;33.33;13.63;;;6.80;81.50;;;;;;5053557;28;20231;-85
2023/05/26 01:49:16;;;;;;;40.83;13.37;;;6.80;81.50;;;;;;5053191;28;20262;-85
2023/05/26 01:51:51;;;;;;;35.77;13.07;;;6.70;81.60;;;;;;5035199;28;20203;-85
2023/05/26 01:54:20;;;;;;;25.90;12.50;;;6.60;81.60;;;;;;5035339;28;20179;-85
2023/05/26 01:56:46;;;;;;;34.40;14.57;;;6.60;82.00;;;;;;5035220;28;20201;-85
2023/05/26 01:59:12;;;;;;;29.50;12.83;;;6.60;81.90;;;;;;5053072;28;20258;-85
2023/05/26 02:01:38;;;;;;;31.33;13.03;;;6.50;82.00;;;;;;5035111;28;20242;-85
2023/05/26 02:04:04;;;;;;;24.93;12.23;;;6.60;82.00;;;;;;5035199;28;20198;-85
2023/05/26 02:06:30;;;;;;;31.10;13.03;;;6.60;82.00;;;;;;5035179;28;20174;-85
2023/05/26 02:08:55;;;;;;;30.20;12.90;;;6.60;81.80;;;;;;5035177;28;20549;-85
2023/05/26 02:11:21;;;;;;;28.20;11.80;;;6.50;81.90;;;;;;5052857;28;20199;-85
2023/05/26 02:13:47;;;;;;;33.90;12.70;;;6.60;81.90;;;;;;5035102;28;20650;-85
2023/05/26 02:16:13;;;;;;;32.80;13.50;;;6.40;81.90;;;;;;5035109;28;20179;-85
2023/05/26 02:18:39;;;;;;;44.57;25.00;;;6.50;82.00;;;;;;5035028;28;20222;-85
2023/05/26 02:21:05;;;;;;;40.17;26.47;;;6.40;82.20;;;;;;5034878;28;20553;-85
2023/05/26 02:23:30;;;;;;;37.57;26.10;;;6.30;82.40;;;;;;5034975;28;20187;-85
2023/05/26 02:25:56;;;;;;;44.23;26.50;;;6.40;82.50;;;;;;5052837;28;20242;-85
2023/05/26 02:28:21;;;;;;;37.33;25.60;;;6.50;82.40;;;;;;5052846;28;20172;-87
2023/05/26 02:30:47;;;;;;;40.57;27.30;;;6.50;82.30;;;;;;5034766;28;20168;-87
2023/05/26 02:33:12;;;;;;;39.37;25.50;;;6.50;82.20;;;;;;5052950;28;20172;-87
2023/05/26 02:35:38;;;;;;;40.37;25.80;;;6.50;82.10;;;;;;5034850;28;20180;-85
2023/05/26 02:38:03;;;;;;;42.03;25.00;;;6.40;82.00;;;;;;5034974;28;20570;-85
2023/05/26 02:40:29;;;;;;;38.03;25.50;;;6.50;81.90;;;;;;5034930;28;20172;-85
2023/05/26 02:42:55;;;;;;;45.07;25.70;;;6.40;81.90;;;;;;5053250;28;20628;-85
2023/05/26 02:45:20;;;;;;;33.77;25.70;;;6.40;82.00;;;;;;5053315;28;20251;-85
2023/05/26 02:47:46;;;;;;;40.57;23.07;;;6.40;82.20;;;;;;5038690;28;20674;-84
2023/05/26 02:50:12;;;;;;;42.30;28.67;;;6.30;82.20;;;;;;5056291;28;20179;-85
2023/05/26 02:52:37;;;;;;;45.40;27.80;;;6.30;82.40;;;;;;5038548;28;20191;-85
2023/05/26 02:55:03;;;;;;;40.73;28.03;;;6.30;82.40;;;;;;5038492;28;20321;-85
2023/05/26 02:57:29;;;;;;;43.10;27.87;;;6.30;82.70;;;;;;5056265;28;20189;-85
2023/05/26 02:59:54;;;;;;;39.73;27.73;;;6.30;82.60;;;;;;5056169;28;20168;-87
2023/05/26 03:02:20;;;;;;;32.17;12.17;;;6.30;82.60;;;;;;5038166;28;20215;-85
2023/05/26 03:04:46;;;;;;;35.57;12.00;;;6.30;82.60;;;;;;5038396;28;20695;-84
2023/05/26 03:07:11;;;;;;;31.10;12.77;;;6.30;82.60;;;;;;5056435;28;20246;-85
2023/05/26 03:09:38;;;;;;;30.10;11.67;;;6.40;82.60;;;;;;5038294;28;20668;-85
2023/05/26 03:12:03;;;;;;;23.50;11.27;;;6.30;82.70;;;;;;5056045;28;20713;-85
2023/05/26 03:14:30;;;;;;;39.17;12.63;;;6.30;82.60;;;;;;5056104;28;20196;-85
2023/05/26 03:16:56;;;;;;;29.37;11.53;;;6.30;82.60;;;;;;5038340;28;20638;-87
2023/05/26 03:19:21;;;;;;;36.80;11.53;;;6.30;82.60;;;;;;5038044;28;20172;-87
2023/05/26 03:21:47;;;;;;;39.23;11.87;;;6.30;82.90;;;;;;5037922;28;20682;-84
2023/05/26 03:24:12;;;;;;;43.63;11.07;;;6.30;83.10;;;;;;5037893;28;20341;-85
2023/05/26 03:26:38;;;;;;;39.23;11.77;;;6.30;83.70;;;;;;5055816;28;20657;-87
2023/05/26 03:29:03;;;;;;;25.50;10.87;;;6.30;84.00;;;;;;5037907;28;20179;-87
2023/05/26 03:31:30;;;;;;;31.50;11.17;;;6.30;83.80;;;;;;5037691;28;20238;-87
2023/05/26 03:33:55;;;;;;;30.53;11.20;;;6.30;83.70;;;;;;5055878;28;20180;-87
2023/05/26 03:36:21;;;;;;;31.17;11.33;;;6.30;83.70;;;;;;5055901;28;20260;-85
2023/05/26 03:38:46;;;;;;;33.83;11.47;;;6.30;83.70;;;;;;5037708;28;20229;-84
2023/05/26 03:41:12;;;;;;;38.23;11.97;;;6.40;83.60;;;;;;5037954;28;20245;-85
2023/05/26 03:43:38;;;;;;;35.57;11.60;;;6.50;83.50;;;;;;5037441;28;20650;-85
2023/05/26 03:46:03;;;;;;;38.23;11.90;;;6.50;83.30;;;;;;5055315;28;20597;-86
2023/05/26 03:48:29;;;;;;;39.10;11.30;;;6.60;83.20;;;;;;5037550;28;20263;-85
2023/05/26 03:50:54;;;;;;;39.90;11.57;;;6.70;83.00;;;;;;5037453;28;20263;-85
2023/05/26 03:53:20;;;;;;;32.07;10.87;;;6.70;82.80;;;;;;5037566;28;20180;-85
2023/05/26 03:55:46;;;;;;;40.20;10.90;;;6.80;82.80;;;;;;5037350;28;20176;-86
2023/05/26 03:58:12;;;;;;;50.93;10.57;;;6.80;82.50;;;;;;5036392;28;20182;-85
2023/05/26 04:00:38;;;;;;;32.10;9.90;;;6.90;82.60;;;;;;5054998;28;20176;-85
2023/05/26 04:03:03;;;;;;;45.60;10.07;;;6.90;82.60;;;;;;5037031;28;20233;-85
2023/05/26 04:05:29;;;;;;;37.90;10.60;;;6.90;82.80;;;;;;5037145;28;20265;-85
2023/05/26 04:07:55;;;;;;;28.93;10.97;;;7.00;82.90;;;;;;5037661;28;20176;-85
2023/05/26 04:10:20;;;;;;;36.60;10.03;;;7.00;82.80;;;;;;5055228;28;20171;-85
2023/05/26 04:12:46;;;;;;;24.10;9.47;;;7.00;82.70;;;;;;5037004;28;20192;-85
2023/05/26 04:15:11;;;;;;;34.60;9.90;;;7.20;82.80;;;;;;5037320;28;20664;-85
2023/05/26 04:17:37;;;;;;;32.67;9.23;;;7.20;82.60;;;;;;5054854;28;20380;-85
2023/05/26 04:20:10;;;;;;;30.30;8.97;;;7.10;82.60;;;;;;5036859;28;20184;-86
2023/05/26 04:22:35;;;;;;;38.87;10.63;;;7.10;82.70;;;;;;5037246;28;20680;-85
2023/05/26 04:25:01;;;;;;;44.77;10.73;;;7.10;82.80;;;;;;5054575;28;20294;-86
2023/05/26 04:27:27;;;;;;;32.60;9.93;;;7.20;82.90;;;;;;5054654;28;20172;-86
2023/05/26 04:29:52;;;;;;;36.90;10.00;;;7.30;83.10;;;;;;5036720;28;20184;-85
2023/05/26 04:32:20;;;;;;;35.70;10.70;;;7.40;82.70;;;;;;5054445;28;20215;-85
2023/05/26 04:34:46;;;;;;;39.20;9.73;;;7.30;82.90;;;;;;5036630;28;20175;-86
2023/05/26 04:37:12;;;;;;;34.40;9.37;;;7.30;82.90;;;;;;5036497;28;20203;-85
2023/05/26 04:39:37;;;;;;;34.40;9.20;;;7.40;83.00;;;;;;5036551;28;20263;-85
2023/05/26 04:42:03;;;;;;;38.50;10.73;;;7.30;83.20;;;;;;5054129;28;20741;-85
2023/05/26 04:44:31;;;;;;;38.07;10.80;;;7.50;83.40;;;;;;5036347;28;20207;-86
2023/05/26 04:46:56;;;;;;;35.83;10.33;;;7.50;83.20;;;;;;5036246;28;20262;-86
2023/05/26 04:49:23;;;;;;;33.53;10.63;;;7.50;83.40;;;;;;5054221;28;20592;-85
2023/05/26 04:51:57;;;;;;;41.87;10.93;;;7.50;83.50;;;;;;5036180;28;20242;-85
2023/05/26 04:54:23;;;;;;;31.90;10.47;;;7.50;83.50;;;;;;5036804;28;20536;-86
2023/05/26 04:56:48;;;;;;;36.03;10.37;;;7.60;83.60;;;;;;5053995;28;20169;-86
2023/05/26 04:59:17;;;;;;;37.27;9.53;;;7.50;83.40;;;;;;5036015;28;20745;-85
2023/05/26 05:01:44;;;;;;;34.97;10.10;;;7.60;83.50;;;;;;5053820;28;20598;-85
2023/05/26 05:04:10;;;;;;;34.53;11.53;;;7.60;83.50;;;;;;5035933;28;20230;-86
2023/05/26 05:06:35;;;;;;;39.57;10.70;;;7.70;83.70;;;;;;5035940;28;20199;-85
2023/05/26 05:09:01;;;;;;;42.87;16.93;;;7.70;83.90;;;;;;5035777;28;20210;-86
2023/05/26 05:11:27;;;;;;;41.33;17.13;;;7.70;84.20;;;;;;5036031;28;20192;-85
2023/05/26 05:13:52;;;;;;;47.13;18.57;;;7.70;84.30;;;;;;5053656;28;20253;-85
2023/05/26 05:16:17;;;;;;;45.63;18.53;;;7.80;84.50;;;;;;5053680;28;20168;-85
2023/05/26 05:18:44;;;;;;;42.10;15.53;;;7.80;84.80;;;;;;5035804;28;20186;-85
2023/05/26 05:21:09;;;;;;;41.83;16.37;;;7.90;84.90;;;;;;5035650;28;20253;-85
2023/05/26 05:23:35;;;;;;;40.80;15.93;;;8.00;85.00;;;;;;5053561;28;20188;-85
2023/05/26 05:26:01;;;;;;;58.87;17.30;;;8.10;85.10;;;;;;5035733;28;20176;-86
2023/05/26 05:28:27;;;;;;;45.40;17.17;;;8.00;85.10;;;;;;5053677;28;20168;-86
2023/05/26 05:30:52;;;;;;;39.30;16.13;;;8.20;85.30;;;;;;5035529;28;20263;-85
2023/05/26 05:33:18;;;;;;;43.07;9.53;;;8.30;85.30;;;;;;5035578;28;20662;-85
2023/05/26 05:35:47;;;;;;;42.67;10.50;;;8.30;85.40;;;;;;5035524;28;20701;-85
2023/05/26 05:38:12;;;;;;;40.60;9.53;;;8.50;85.30;;;;;;5035439;28;20187;-85
2023/05/26 05:40:38;;;;;;;33.67;9.17;;;8.60;85.00;;;;;;5053299;28;20180;-85
2023/05/26 05:43:04;;;;;;;36.03;9.87;;;8.60;85.00;;;;;;5035308;28;20555;-85
2023/05/26 05:45:29;;;;;;;32.83;10.30;;;8.80;85.00;;;;;;5035244;28;20218;-86
2023/05/26 05:47:55;;;;;;;32.70;9.50;;;8.90;84.70;;;;;;5035301;28;20172;-86
2023/05/26 05:50:21;;;;;;;39.60;9.83;;;8.90;84.40;;;;;;5053128;28;20742;-85
2023/05/26 05:52:46;;;;;;;37.73;10.27;;;9.10;84.60;;;;;;5035317;28;20214;-85
2023/05/26 05:55:12;;;;;;;32.30;10.17;;;9.30;84.30;;;;;;5053095;28;20178;-86
2023/05/26 05:57:37;;;;;;;36.27;11.07;;;9.20;83.70;;;;;;5053455;28;20190;-86
2023/05/26 06:00:09;;;;;;;40.27;10.13;;;9.30;83.80;;;;;;5035241;28;20180;-86
2023/05/26 06:02:36;;;;;;;29.37;9.47;;;9.40;83.40;;;;;;5034994;28;20212;-86
2023/05/26 06:05:01;;;;;;;38.93;9.80;;;9.60;83.10;;;;;;5035073;28;20262;-86
2023/05/26 06:07:27;;;;;;;31.27;9.60;;;9.50;82.50;;;;;;5053238;28;20172;-85
2023/05/26 06:09:52;;;;;;;32.53;9.70;;;9.60;82.40;;;;;;5052973;28;20164;-86
2023/05/26 06:12:18;;;;;;;37.87;9.57;;;9.70;81.90;;;;;;5052949;28;20199;-86
2023/05/26 06:14:43;;;;;;;31.13;11.70;;;9.80;82.00;;;;;;5034994;28;20715;-86
2023/05/26 06:17:09;;;;;;;28.23;11.20;;;9.80;80.90;;;;;;5052910;28;20226;-86
2023/05/26 06:19:35;;;;;;;39.47;11.90;;;10.00;80.50;;;;;;5053158;28;20225;-86
2023/05/26 06:22:00;;;;;;;36.33;12.27;;;10.10;80.50;;;;;;5038436;28;20253;-86
2023/05/26 06:24:26;;;;;;;35.93;12.20;;;10.20;80.40;;;;;;5038986;28;20207;-85
2023/05/26 06:26:51;;;;;;;32.50;11.10;;;10.30;79.70;;;;;;5038925;28;20260;-86
2023/05/26 06:29:17;;;;;;;38.07;12.07;;;10.30;78.30;;;;;;5038924;28;20176;-86
2023/05/26 06:31:45;;;;;;;44.30;13.50;;;10.20;78.30;;;;;;5056807;28;20192;-85
2023/05/26 06:34:10;;;;;;;31.33;12.77;;;10.30;78.00;;;;;;5056738;28;20233;-86
2023/05/26 06:36:36;;;;;;;38.93;12.43;;;10.50;78.30;;;;;;5038866;28;20172;-86
2023/05/26 06:39:02;;;;;;;38.10;12.23;;;10.70;78.00;;;;;;5038775;28;20172;-86
2023/05/26 06:41:27;;;;;;;29.57;11.93;;;10.80;77.90;;;;;;5039858;28;20662;-85
2023/05/26 06:43:54;;;;;;;40.47;11.23;;;10.70;77.10;;;;;;5056452;28;20540;-86
2023/05/26 06:46:19;;;;;;;38.43;12.23;;;10.80;76.70;;;;;;5056405;28;20173;-86
2023/05/26 06:48:45;;;;;;;30.03;12.50;;;11.00;75.90;;;;;;5056458;28;20230;-86
2023/05/26 06:51:10;;;;;;;32.93;11.53;;;11.10;75.40;;;;;;5038578;28;20246;-86
2023/05/26 06:53:37;;;;;;;29.23;11.53;;;11.30;75.30;;;;;;5056422;28;20165;-86
2023/05/26 06:56:03;;;;;;;37.37;12.77;;;11.40;75.00;;;;;;5038852;28;20189;-86
2023/05/26 06:58:29;;;;;;;38.40;12.83;;;11.40;73.20;;;;;;5056250;28;20179;-86
2023/05/26 07:00:59;;;;;;;29.83;11.80;;;11.70;74.50;;;;;;5056199;28;20176;-85
2023/05/26 07:03:26;;;;;;;29.50;13.47;;;11.80;73.40;;;;;;5038219;28;20195;-86
2023/05/26 07:05:52;;;;;;;35.90;13.30;;;11.80;72.90;;;;;;5038158;28;20208;-86
2023/05/26 07:08:18;;;;;;;26.60;11.57;;;11.80;73.40;;;;;;5038299;28;20200;-86
2023/05/26 07:10:43;;;;;;;32.27;13.27;;;11.80;72.40;;;;;;5038221;28;20164;-86
2023/05/26 07:13:09;;;;;;;30.17;14.50;;;11.80;71.90;;;;;;5038144;28;20613;-86
2023/05/26 07:15:34;;;;;;;32.13;16.00;;;12.00;71.50;;;;;;5056311;28;20511;-86
2023/05/26 07:18:00;;;;;;;28.33;14.50;;;11.90;68.90;;;;;;5056069;28;20180;-86
2023/05/26 07:20:25;;;;;;;30.10;14.77;;;12.10;70.70;;;;;;5038093;28;20258;-86
2023/05/26 07:22:51;;;;;;;26.97;13.90;;;12.20;70.50;;;;;;5055812;28;20210;-87
2023/05/26 07:25:17;;;;;;;31.43;22.63;;;12.30;69.70;;;;;;5055817;28;20200;-86
2023/05/26 07:27:42;;;;;;;37.13;22.73;;;12.30;67.80;;;;;;5055838;28;20184;-86
2023/05/26 07:30:08;;;;;;;39.07;22.87;;;12.50;68.50;;;;;;5038583;28;20172;-85
2023/05/26 07:32:34;;;;;;;35.57;24.53;;;12.70;68.90;;;;;;5037895;28;20200;-85
2023/05/26 07:35:00;;;;;;;33.20;23.70;;;12.70;66.10;;;;;;5037957;28;20266;-85
2023/05/26 07:37:25;;;;;;;33.40;25.73;;;12.80;65.90;;;;;;5055743;28;20721;-87
2023/05/26 07:39:51;;;;;;;36.60;25.13;;;12.80;66.10;;;;;;5038015;28;20673;-87
2023/05/26 07:42:16;;;;;;;32.83;16.77;;;12.80;66.30;;;;;;5055520;28;20207;-87
2023/05/26 07:44:42;;;;;;;30.00;16.50;;;12.60;66.00;;;;;;5037666;28;20200;-87
2023/05/26 07:47:07;;;;;;;32.63;16.47;;;12.50;65.70;;;;;;5037734;28;20555;-87
2023/05/26 07:49:33;;;;;;;26.63;17.27;;;12.40;66.40;;;;;;5037922;28;20172;-88
2023/05/26 07:51:58;;;;;;;29.97;16.87;;;12.40;66.30;;;;;;5037403;28;20192;-87
2023/05/26 07:54:24;;;;;;;25.60;17.23;;;12.40;66.90;;;;;;5037535;28;20180;-87
2023/05/26 07:56:49;;;;;;;35.77;17.77;;;12.50;66.90;;;;;;5055277;28;20582;-88
2023/05/26 07:59:16;;;;;;;36.23;18.10;;;12.60;66.70;;;;;;5037450;28;20594;-86
2023/05/26 08:01:42;;;;;;;30.00;17.87;;;12.70;67.50;;;;;;5054962;28;20195;-85
2023/05/26 08:04:07;;;;;;;33.00;16.53;;;12.80;66.40;;;;;;5055126;28;20533;-86
2023/05/26 08:06:35;;;;;;;27.77;18.27;;;13.10;66.20;;;;;;5037223;28;20565;-87
2023/05/26 08:09:01;;;;;;;30.90;16.50;;;13.20;65.00;;;;;;5037211;28;20178;-87
2023/05/26 08:11:26;;;;;;;29.03;16.27;;;13.20;64.00;;;;;;5037107;28;20560;-86
2023/05/26 08:13:52;;;;;;;38.77;17.97;;;13.40;65.70;;;;;;5055076;28;20190;-85
2023/05/26 08:16:18;;;;;;;29.83;17.70;;;13.20;65.00;;;;;;5037092;28;20172;-87
2023/05/26 08:18:43;;;;;;;27.33;15.27;;;13.00;64.60;;;;;;5054787;28;20164;-87
2023/05/26 08:21:09;;;;;;;28.43;17.47;;;13.30;64.90;;;;;;5054772;28;20220;-87
2023/05/26 08:23:34;;;;;;;29.03;17.33;;;13.30;64.30;;;;;;5055128;28;20172;-87
2023/05/26 08:26:01;;;;;;;28.80;17.27;;;13.30;63.10;;;;;;5036904;28;20300;-87
2023/05/26 08:28:26;;;;;;;31.10;18.30;;;13.40;63.50;;;;;;5036949;28;20176;-87
2023/05/26 08:30:52;;;;;;;30.07;17.73;;;13.50;63.70;;;;;;5036790;28;20172;-86
2023/05/26 08:33:17;;;;;;;32.90;17.30;;;13.60;62.30;;;;;;5036710;28;20673;-86
2023/05/26 08:35:43;;;;;;;29.33;16.90;;;13.70;62.60;;;;;;5054544;28;20180;-86
2023/05/26 08:38:08;;;;;;;24.60;16.87;;;13.80;61.30;;;;;;5054594;28;20180;-87
2023/05/26 08:40:34;;;;;;;30.40;16.63;;;13.80;62.20;;;;;;5054560;28;20176;-87
2023/05/26 08:43:05;;;;;;;29.17;16.57;;;13.80;61.90;;;;;;5035985;28;20203;-87
2023/05/26 08:45:32;;;;;;;29.53;17.13;;;13.50;62.10;;;;;;5054254;28;20318;-87
2023/05/26 08:48:00;;;;;;;31.15;17.60;;;13.70;62.20;;;;;;5054318;28;20175;-87
2023/05/26 08:50:30;;;;;;;28.77;16.87;;;14.00;63.20;;;;;;5036483;28;20176;-87
2023/05/26 08:52:57;;;;;;;28.50;16.17;;;14.20;62.40;;;;;;5054529;28;20188;-86
2023/05/26 08:55:22;;;;;;;29.13;16.90;;;14.30;62.30;;;;;;5054259;28;20174;-88
2023/05/26 08:57:48;;;;;;;24.27;16.05;;;14.60;61.30;;;;;;5036358;28;20176;-87
2023/05/26 09:00:16;;;;;;;25.07;16.37;;;14.80;60.90;;;;;;5036191;28;20230;-88
2023/05/26 09:02:42;;;;;;;24.60;16.65;;;14.70;59.40;;;;;;5035990;28;20634;-87
2023/05/26 09:05:08;;;;;;;20.55;13.80;;;14.60;57.60;;;;;;5054344;28;20200;-87
2023/05/26 09:07:34;;;;;;;31.83;15.57;;;14.70;59.70;;;;;;5036019;28;20191;-87
2023/05/26 09:10:23;;;;;;;26.30;15.52;;;14.80;59.80;;;;;;5036058;28;20654;-87
2023/05/26 09:13:00;;;;;;;29.30;16.77;;;15.00;60.10;;;;;;5046124;28;20694;-88
2023/05/26 09:15:26;;;;;;;27.25;15.93;;;15.10;58.80;;;;;;5036024;28;20164;-88
2023/05/26 09:17:51;;;;;;;29.67;17.02;;;15.00;58.00;;;;;;5035785;28;20211;-88
2023/05/26 09:20:17;;;;;;;26.45;16.92;;;15.20;58.90;;;;;;5054052;28;20181;-88
2023/05/26 09:22:44;;;;;;;30.35;17.40;;;15.20;59.60;;;;;;5035809;28;20200;-88
2023/05/26 09:25:10;;;;;;;27.77;16.63;;;15.50;58.90;;;;;;5035736;28;20730;-88
2023/05/26 09:27:36;;;;;;;24.25;16.77;;;15.50;56.80;;;;;;5036118;28;20203;-89
2023/05/26 09:30:04;;;;;;;25.05;17.17;;;15.60;57.20;;;;;;5036362;28;20187;-89
2023/05/26 09:32:32;;;;;;;28.92;17.00;;;15.80;56.90;;;;;;5035814;28;20708;-88
2023/05/26 09:35:00;;;;;;;28.85;16.92;;;16.10;56.70;;;;;;5036063;28;20654;-86
2023/05/26 09:37:30;;;;;;;27.27;17.15;;;15.90;55.00;;;;;;5036030;28;20266;-86
2023/05/26 09:40:05;;;;;;;28.17;23.55;;;15.70;55.90;;;;;;5053549;28;20269;-87
2023/05/26 09:42:31;;;;;;;29.02;24.73;;;15.60;56.80;;;;;;5035818;28;20203;-86
2023/05/26 09:44:56;;;;;;;37.22;24.60;;;15.70;58.30;;;;;;5053501;28;20567;-88
2023/05/26 09:47:22;;;;;;;30.25;24.65;;;15.70;55.30;;;;;;5035478;28;20251;-88
2023/05/26 09:49:47;;;;;;;39.05;24.60;;;15.70;56.80;;;;;;5053206;28;20256;-88
2023/05/26 09:52:13;;;;;;;33.05;25.85;;;15.70;56.00;;;;;;5053137;28;20196;-88
2023/05/26 09:54:39;;;;;;;28.15;17.05;;;15.60;57.30;;;;;;5052612;28;20590;-88
2023/05/26 09:57:09;;;;;;;25.98;16.77;;;15.70;56.60;;;;;;5036168;28;20187;-88
2023/05/26 09:59:38;;;;;;;30.17;18.02;;;15.70;56.60;;;;;;5035422;28;20164;-88
2023/05/26 10:02:23;;;;;;;21.95;16.75;;;15.70;56.10;;;;;;5035215;28;20697;-88
2023/05/26 10:04:50;;;;;;;25.17;17.55;;;15.70;56.70;;;;;;5035309;28;20295;-88
2023/05/26 10:07:18;;;;;;;24.20;16.83;;;15.70;57.50;;;;;;5035498;28;20172;-88
2023/05/26 10:09:50;;;;;;;23.85;16.35;;;15.70;56.20;;;;;;5053286;28;20195;-88
2023/05/26 10:12:19;;;;;;;30.92;16.25;;;15.80;57.20;;;;;;5035267;28;20765;-88
2023/05/26 10:14:45;;;;;;;25.80;16.38;;;15.70;54.90;;;;;;5053043;28;20242;-88
2023/05/26 10:17:11;;;;;;;27.90;16.75;;;15.60;57.80;;;;;;5035152;28;20555;-88
2023/05/26 10:19:37;;;;;;;31.13;17.40;;;15.50;58.80;;;;;;5035095;28;20176;-88
2023/05/26 10:22:10;;;;;;;27.58;16.95;;;15.60;58.10;;;;;;5052886;28;20199;-88
2023/05/26 10:24:40;;;;;;;30.90;17.27;;;15.50;58.70;;;;;;5052896;28;20279;-88
2023/05/26 10:27:37;;;;;;;34.55;19.27;;;15.20;60.40;;;;;;5035080;28;20393;-88
2023/05/26 10:30:10;;;;;;;27.33;17.85;;;15.20;61.60;;;;;;5034993;28;20650;-88
2023/05/26 10:32:51;;;;;;;24.00;17.73;;;15.20;60.80;;;;;;5052798;28;20192;-88
2023/05/26 10:35:29;;;;;;;28.20;17.77;;;15.40;59.40;;;;;;5052586;28;20184;-87
2023/05/26 10:38:03;;;;;;;24.95;17.42;;;15.30;60.10;;;;;;5034936;28;20191;-88
2023/05/26 10:40:41;;;;;;;38.10;18.90;;;15.00;59.50;;;;;;5034967;28;20649;-88
2023/05/26 10:43:17;;;;;;;27.13;18.25;;;14.90;60.30;;;;;;5034815;28;20223;-88
2023/05/26 10:45:45;;;;;;;27.38;17.08;;;14.90;61.50;;;;;;5034853;28;20196;-88
2023/05/26 10:48:11;;;;;;;31.65;18.20;;;15.10;60.80;;;;;;5035749;28;20245;-88
2023/05/26 10:50:58;;;;;;;23.38;17.63;;;15.30;60.90;;;;;;5034947;28;20653;-88
2023/05/26 10:53:45;;;;;;;27.92;18.33;;;15.20;59.00;;;;;;5034733;28;20214;-88
2023/05/26 10:56:13;;;;;;;27.88;17.95;;;15.30;59.40;;;;;;5034575;28;20183;-88
2023/05/26 10:58:38;;;;;;;30.58;17.55;;;15.50;60.80;;;;;;5034825;28;20666;-87
2023/05/26 11:01:12;;;;;;;29.77;17.33;;;15.40;59.50;;;;;;5035827;28;20172;-86
2023/05/26 11:03:54;;;;;;;30.00;17.77;;;15.40;60.10;;;;;;5053310;28;20207;-86
2023/05/26 11:06:41;;;;;;;27.42;17.95;;;15.50;59.20;;;;;;5053181;28;20161;-86
2023/05/26 11:09:08;;;;;;;29.55;18.30;;;15.40;59.50;;;;;;5038621;28;20168;-86
2023/05/26 11:11:38;;;;;;;33.03;17.60;;;15.20;58.70;;;;;;5038296;28;20202;-86
2023/05/26 11:14:06;;;;;;;34.10;18.85;;;15.30;60.30;;;;;;5056509;28;20505;-87
2023/05/26 11:16:36;;;;;;;24.75;16.00;;;15.20;60.90;;;;;;5038474;28;20609;-85
2023/05/26 11:19:06;;;;;;;30.33;16.27;;;15.10;62.00;;;;;;5056492;28;20199;-87
2023/05/26 11:21:34;;;;;;;28.40;17.33;;;15.20;61.20;;;;;;5056163;28;20196;-87
2023/05/26 11:24:00;;;;;;;30.33;18.05;;;15.10;62.10;;;;;;5055897;28;20163;-86
2023/05/26 11:26:30;;;;;;;28.20;17.08;;;15.30;61.50;;;;;;5037923;28;20309;-87
2023/05/26 11:28:56;;;;;;;25.90;17.38;;;15.40;60.70;;;;;;5055791;28;20210;-87
2023/05/26 11:31:25;;;;;;;30.52;16.83;;;15.60;61.40;;;;;;5037914;28;20207;-88
2023/05/26 11:33:51;;;;;;;25.48;17.85;;;15.50;60.30;;;;;;5037838;28;20175;-88
2023/05/26 11:36:18;;;;;;;27.75;17.20;;;15.50;60.30;;;;;;5055661;28;20176;-87
2023/05/26 11:38:47;;;;;;;28.55;17.33;;;15.60;59.10;;;;;;5055611;28;20506;-88
2023/05/26 11:41:17;;;;;;;26.50;16.58;;;15.60;59.00;;;;;;5055443;28;20187;-88
2023/05/26 11:43:46;;;;;;;30.20;16.52;;;15.80;57.80;;;;;;5037693;28;20165;-89
2023/05/26 11:46:14;;;;;;;19.35;16.50;;;15.70;58.50;;;;;;5037869;28;20184;-89
2023/05/26 11:48:41;;;;;;;38.08;16.98;;;15.80;58.90;;;;;;5038011;28;20157;-88
2023/05/26 11:51:15;;;;;;;28.20;16.55;;;15.80;58.20;;;;;;5037680;28;20188;-87
2023/05/26 11:53:42;;;;;;;25.33;16.50;;;15.90;58.90;;;;;;5055512;28;20164;-87
2023/05/26 11:56:15;;;;;;;26.83;23.42;;;16.00;56.70;;;;;;5055478;28;20224;-88
2023/05/26 11:58:54;;;;;;;29.15;22.70;;;16.10;58.00;;;;;;5037569;28;20160;-87
2023/05/26 12:01:27;;;;;;;28.80;24.38;;;16.10;57.10;;;;;;5055834;28;20614;-87
2023/05/26 12:03:55;;;;;;;29.85;24.38;;;15.80;57.60;;;;;;5037161;28;20592;-86
2023/05/26 12:06:23;;;;;;;30.85;24.77;;;15.80;58.10;;;;;;5055133;28;20255;-86
2023/05/26 12:09:00;;;;;;;31.27;25.95;;;16.00;57.20;;;;;;5037244;28;20226;-87
2023/05/26 12:11:28;;;;;;;23.42;16.63;;;16.00;57.50;;;;;;5037317;28;20191;-87
2023/05/26 12:14:10;;;;;;;24.27;15.52;;;16.20;58.30;;;;;;5037833;28;20646;-87
2023/05/26 12:16:41;;;;;;;25.52;16.60;;;16.40;56.00;;;;;;5055196;28;20153;-89
2023/05/26 12:19:10;;;;;;;26.38;16.70;;;16.60;55.70;;;;;;5036373;28;20169;-89
2023/05/26 12:21:40;;;;;;;23.27;17.13;;;16.80;55.80;;;;;;5037120;28;20187;-89
2023/05/26 12:24:06;;;;;;;21.77;17.42;;;17.00;55.30;;;;;;5037080;28;20235;-89
2023/05/26 12:26:31;;;;;;;24.88;17.10;;;17.10;54.60;;;;;;5037041;28;20214;-89
2023/05/26 12:29:14;;;;;;;22.52;17.30;;;17.00;53.30;;;;;;5054910;28;20206;-88
2023/05/26 12:31:48;;;;;;;23.92;16.88;;;16.80;52.60;;;;;;5036856;28;20199;-89
2023/05/26 12:34:17;;;;;;;25.88;17.08;;;16.50;55.80;;;;;;5036983;28;20207;-88
2023/05/26 12:36:44;;;;;;;30.83;18.20;;;16.30;56.90;;;;;;5054815;28;20195;-88